createdAt,value
2018-06-25T00:00:52.509Z,6.80
2018-06-25T00:01:52.483Z,6.40
2018-06-25T00:02:52.454Z,6.20
2018-06-25T00:03:52.431Z,6.90
2018-06-25T00:04:52.402Z,6.40
2018-06-25T00:05:52.375Z,6.40
2018-06-25T00:06:52.349Z,6.80
2018-06-25T00:07:52.326Z,6.60
2018-06-25T00:08:52.350Z,6.70
2018-06-25T00:09:52.273Z,6.70
2018-06-25T00:10:52.247Z,6.30
2018-06-25T00:11:52.224Z,5.70
2018-06-25T00:12:52.195Z,6.20
2018-06-25T00:13:52.169Z,6.40
2018-06-25T00:14:52.144Z,6.10
2018-06-25T00:15:52.124Z,6.20
2018-06-25T00:16:52.091Z,6.00
2018-06-25T00:17:52.065Z,5.90
2018-06-25T00:18:52.039Z,6.60
2018-06-25T00:19:52.015Z,6.30
2018-06-25T00:20:51.989Z,6.30
2018-06-25T00:21:51.964Z,7.40
2018-06-25T00:22:51.940Z,6.50
2018-06-25T00:23:51.909Z,6.90
2018-06-25T00:24:51.883Z,6.50
2018-06-25T00:25:51.856Z,6.00
2018-06-25T00:26:51.830Z,6.50
2018-06-25T00:27:51.811Z,6.50
2018-06-25T00:28:51.781Z,6.20
2018-06-25T00:29:51.756Z,6.30
2018-06-25T00:30:51.731Z,6.30
2018-06-25T00:31:51.700Z,6.20
2018-06-25T00:32:51.673Z,6.70
2018-06-25T00:33:51.647Z,6.50
2018-06-25T00:34:51.624Z,6.40
2018-06-25T00:35:51.598Z,6.40
2018-06-25T00:36:51.572Z,6.40
2018-06-25T00:37:51.546Z,6.60
2018-06-25T00:38:51.519Z,6.90
2018-06-25T00:39:51.492Z,6.40
2018-06-25T00:40:51.467Z,6.60
2018-06-25T00:41:51.443Z,6.70
2018-06-25T00:42:51.413Z,6.30
2018-06-25T00:43:51.389Z,6.00
2018-06-25T00:44:51.365Z,6.00
2018-06-25T00:45:51.335Z,6.10
2018-06-25T00:46:51.311Z,6.00
2018-06-25T00:47:51.285Z,6.40
2018-06-25T00:48:51.259Z,6.30
2018-06-25T00:49:51.231Z,7.00
2018-06-25T00:50:51.263Z,5.80
2018-06-25T00:51:51.178Z,6.10
2018-06-25T00:52:51.162Z,5.80
2018-06-25T00:53:51.125Z,6.00
2018-06-25T00:54:51.098Z,6.00
2018-06-25T00:55:51.076Z,5.90
2018-06-25T00:56:51.048Z,6.60
2018-06-25T00:57:51.021Z,5.70
2018-06-25T00:58:50.997Z,5.70
2018-06-25T00:59:50.976Z,6.00
2018-06-25T01:00:50.945Z,7.00
2018-06-25T01:01:50.917Z,5.80
2018-06-25T01:02:50.890Z,6.00
2018-06-25T01:03:50.867Z,5.40
2018-06-25T01:04:50.837Z,5.50
2018-06-25T01:05:50.817Z,5.90
2018-06-25T01:06:50.789Z,5.70
2018-06-25T01:07:50.761Z,6.00
2018-06-25T01:08:50.735Z,6.50
2018-06-25T01:09:50.709Z,6.20
2018-06-25T01:10:50.681Z,5.80
2018-06-25T01:11:50.655Z,5.90
2018-06-25T01:12:50.629Z,6.40
2018-06-25T01:13:50.612Z,6.70
2018-06-25T01:14:50.576Z,7.50
2018-06-25T01:15:50.550Z,6.80
2018-06-25T01:16:50.525Z,6.70
2018-06-25T01:17:50.497Z,6.30
2018-06-25T01:18:50.471Z,7.00
2018-06-25T01:19:50.461Z,6.80
2018-06-25T01:20:50.421Z,6.80
2018-06-25T01:21:50.395Z,6.90
2018-06-25T01:22:50.379Z,6.60
2018-06-25T01:23:50.341Z,6.70
2018-06-25T01:24:50.322Z,6.70
2018-06-25T01:25:50.290Z,7.00
2018-06-25T01:26:50.263Z,7.40
2018-06-25T01:27:50.242Z,6.60
2018-06-25T01:28:50.216Z,7.10
2018-06-25T01:29:50.186Z,6.80
2018-06-25T01:30:50.161Z,7.30
2018-06-25T01:31:50.136Z,6.30
2018-06-25T01:32:50.111Z,6.30
2018-06-25T01:33:50.083Z,6.70
2018-06-25T01:34:50.060Z,6.50
2018-06-25T01:35:50.030Z,6.70
2018-06-25T01:36:50.004Z,6.30
2018-06-25T01:37:49.977Z,6.60
2018-06-25T01:38:49.951Z,5.70
2018-06-25T01:39:49.930Z,6.10
2018-06-25T01:40:49.902Z,6.00
2018-06-25T01:41:49.876Z,5.90
2018-06-25T01:42:49.857Z,6.20
2018-06-25T01:43:49.823Z,6.10
2018-06-25T01:44:49.800Z,5.70
2018-06-25T01:45:49.770Z,5.60
2018-06-25T01:46:49.745Z,5.90
2018-06-25T01:47:49.719Z,5.90
2018-06-25T01:48:49.696Z,5.40
2018-06-25T01:49:49.667Z,6.00
2018-06-25T01:50:49.644Z,5.50
2018-06-25T01:51:49.617Z,5.50
2018-06-25T01:52:49.593Z,5.80
2018-06-25T01:53:49.567Z,6.20
2018-06-25T01:54:49.539Z,5.80
2018-06-25T01:55:49.514Z,5.80
2018-06-25T01:56:49.487Z,5.60
2018-06-25T01:57:49.461Z,5.70
2018-06-25T01:58:49.435Z,5.50
2018-06-25T01:59:49.412Z,5.90
2018-06-25T02:00:49.387Z,5.90
2018-06-25T02:01:49.361Z,5.70
2018-06-25T02:02:49.336Z,5.20
2018-06-25T02:03:49.313Z,5.50
2018-06-25T02:04:49.282Z,6.20
2018-06-25T02:05:49.258Z,6.50
2018-06-25T02:06:49.233Z,5.60
2018-06-25T02:07:49.205Z,6.00
2018-06-25T02:08:49.178Z,5.90
2018-06-25T02:09:49.153Z,5.60
2018-06-25T02:10:49.126Z,5.90
2018-06-25T02:11:49.104Z,5.00
2018-06-25T02:12:49.078Z,5.50
2018-06-25T02:13:49.050Z,6.10
2018-06-25T02:14:49.028Z,5.10
2018-06-25T02:15:49.003Z,5.70
2018-06-25T02:16:48.973Z,5.70
2018-06-25T02:17:48.950Z,5.20
2018-06-25T02:18:48.927Z,5.60
2018-06-25T02:19:48.902Z,5.70
2018-06-25T02:20:48.890Z,6.00
2018-06-25T02:21:48.843Z,6.10
2018-06-25T02:22:48.820Z,5.70
2018-06-25T02:23:48.798Z,5.30
2018-06-25T02:24:48.770Z,5.50
2018-06-25T02:25:48.744Z,5.40
2018-06-25T02:26:48.719Z,4.90
2018-06-25T02:27:48.692Z,5.60
2018-06-25T02:28:48.666Z,5.70
2018-06-25T02:29:48.639Z,5.30
2018-06-25T02:30:48.615Z,5.20
2018-06-25T02:31:48.590Z,5.20
2018-06-25T02:32:48.566Z,4.80
2018-06-25T02:33:48.540Z,6.00
2018-06-25T02:34:48.513Z,4.90
2018-06-25T02:35:48.490Z,5.20
2018-06-25T02:36:48.461Z,5.10
2018-06-25T02:37:48.435Z,4.80
2018-06-25T02:38:48.418Z,5.00
2018-06-25T02:39:48.387Z,5.20
2018-06-25T02:40:48.360Z,5.50
2018-06-25T02:41:48.351Z,5.10
2018-06-25T02:42:48.310Z,6.00
2018-06-25T02:43:48.282Z,6.10
2018-06-25T02:44:48.258Z,6.20
2018-06-25T02:45:48.235Z,5.50
2018-06-25T02:46:48.206Z,5.50
2018-06-25T02:47:48.183Z,5.10
2018-06-25T02:48:48.156Z,5.70
2018-06-25T02:49:48.129Z,5.90
2018-06-25T02:50:48.107Z,6.10
2018-06-25T02:51:48.079Z,5.90
2018-06-25T02:52:48.055Z,6.70
2018-06-25T02:53:48.031Z,6.60
2018-06-25T02:54:48.007Z,7.00
2018-06-25T02:55:47.975Z,7.30
2018-06-25T02:56:47.951Z,6.50
2018-06-25T02:57:47.924Z,7.60
2018-06-25T02:58:47.900Z,7.30
2018-06-25T02:59:47.876Z,7.10
2018-06-25T03:00:47.855Z,7.00
2018-06-25T03:01:47.824Z,7.20
2018-06-25T03:02:47.798Z,7.10
2018-06-25T03:03:47.772Z,7.60
2018-06-25T03:04:47.747Z,7.40
2018-06-25T03:05:47.720Z,7.40
2018-06-25T03:06:47.694Z,7.30
2018-06-25T03:07:47.669Z,6.50
2018-06-25T03:08:47.651Z,7.80
2018-06-25T03:09:47.618Z,6.90
2018-06-25T03:10:47.598Z,7.20
2018-06-25T03:11:47.569Z,7.50
2018-06-25T03:12:47.544Z,7.60
2018-06-25T03:13:47.518Z,7.30
2018-06-25T03:14:47.492Z,7.70
2018-06-25T03:15:47.465Z,7.50
2018-06-25T03:16:47.440Z,7.80
2018-06-25T03:17:47.418Z,7.80
2018-06-25T03:18:47.388Z,8.00
2018-06-25T03:19:47.365Z,7.70
2018-06-25T03:20:47.339Z,8.00
2018-06-25T03:21:47.312Z,7.20
2018-06-25T03:22:47.288Z,8.10
2018-06-25T03:23:47.266Z,8.30
2018-06-25T03:24:47.238Z,8.20
2018-06-25T03:25:47.212Z,7.10
2018-06-25T03:26:47.187Z,8.20
2018-06-25T03:27:47.159Z,7.40
2018-06-25T03:28:47.136Z,8.10
2018-06-25T03:29:47.110Z,7.40
2018-06-25T03:30:47.084Z,7.60
2018-06-25T03:31:47.062Z,7.80
2018-06-25T03:32:47.037Z,8.20
2018-06-25T03:33:47.012Z,8.00
2018-06-25T03:34:46.981Z,8.20
2018-06-25T03:35:46.955Z,7.90
2018-06-25T03:36:46.931Z,7.90
2018-06-25T03:37:46.904Z,11.70
2018-06-25T03:38:46.882Z,10.90
2018-06-25T03:39:46.856Z,8.40
2018-06-25T03:40:46.831Z,8.80
2018-06-25T03:41:46.804Z,8.30
2018-06-25T03:42:46.781Z,8.30
2018-06-25T03:43:46.754Z,9.20
2018-06-25T03:44:46.733Z,9.00
2018-06-25T03:45:46.703Z,9.10
2018-06-25T03:46:46.679Z,9.20
2018-06-25T03:47:46.656Z,8.50
2018-06-25T03:48:46.628Z,8.80
2018-06-25T03:49:46.606Z,8.90
2018-06-25T03:50:46.579Z,8.60
2018-06-25T03:51:46.553Z,8.50
2018-06-25T03:52:46.528Z,8.70
2018-06-25T03:53:46.501Z,8.50
2018-06-25T03:54:46.477Z,8.50
2018-06-25T03:55:46.452Z,8.40
2018-06-25T03:56:46.430Z,7.50
2018-06-25T03:57:46.400Z,8.40
2018-06-25T03:58:46.377Z,9.00
2018-06-25T03:59:46.354Z,9.00
2018-06-25T04:00:46.329Z,8.40
2018-06-25T04:01:46.304Z,8.90
2018-06-25T04:02:46.285Z,8.00
2018-06-25T04:03:46.258Z,8.50
2018-06-25T04:04:46.226Z,8.10
2018-06-25T04:05:46.200Z,8.30
2018-06-25T04:06:46.190Z,8.00
2018-06-25T04:07:46.154Z,7.70
2018-06-25T04:08:46.129Z,7.80
2018-06-25T04:09:46.104Z,7.40
2018-06-25T04:10:46.131Z,7.30
2018-06-25T04:11:46.059Z,8.70
2018-06-25T04:12:46.031Z,8.00
2018-06-25T04:13:46.007Z,7.70
2018-06-25T04:14:45.981Z,7.40
2018-06-25T04:15:45.955Z,7.80
2018-06-25T04:16:45.929Z,7.80
2018-06-25T04:17:45.905Z,7.70
2018-06-25T04:18:45.879Z,7.60
2018-06-25T04:19:45.856Z,7.90
2018-06-25T04:20:45.925Z,7.50
2018-06-25T04:21:45.805Z,7.40
2018-06-25T04:22:45.783Z,7.80
2018-06-25T04:23:45.826Z,7.80
2018-06-25T04:24:45.734Z,8.00
2018-06-25T04:25:45.703Z,8.20
2018-06-25T04:26:45.679Z,8.20
2018-06-25T04:27:45.655Z,7.50
2018-06-25T04:28:45.629Z,7.10
2018-06-25T04:29:45.604Z,8.30
2018-06-25T04:30:45.669Z,7.20
2018-06-25T04:31:45.558Z,8.40
2018-06-25T04:32:45.532Z,7.60
2018-06-25T04:33:45.507Z,8.10
2018-06-25T04:34:45.481Z,7.60
2018-06-25T04:35:45.458Z,8.70
2018-06-25T04:36:45.430Z,7.60
2018-06-25T04:37:45.405Z,7.90
2018-06-25T04:38:45.382Z,7.60
2018-06-25T04:39:45.357Z,8.00
2018-06-25T04:40:45.333Z,8.10
2018-06-25T04:41:45.308Z,8.60
2018-06-25T04:42:45.283Z,8.40
2018-06-25T04:43:45.257Z,8.30
2018-06-25T04:44:45.242Z,8.40
2018-06-25T04:45:45.208Z,7.90
2018-06-25T04:46:45.182Z,7.60
2018-06-25T04:47:45.167Z,7.50
2018-06-25T04:48:45.134Z,8.40
2018-06-25T04:49:45.111Z,7.90
2018-06-25T04:50:45.086Z,8.20
2018-06-25T04:51:45.064Z,8.30
2018-06-25T04:52:45.037Z,8.60
2018-06-25T04:53:45.010Z,7.50
2018-06-25T04:54:44.985Z,7.30
2018-06-25T04:55:44.962Z,7.90
2018-06-25T04:56:44.937Z,7.90
2018-06-25T04:57:44.926Z,7.80
2018-06-25T04:58:44.888Z,7.40
2018-06-25T04:59:44.864Z,7.50
2018-06-25T05:00:44.841Z,7.50
2018-06-25T05:01:44.815Z,7.80
2018-06-25T05:02:44.790Z,7.50
2018-06-25T05:03:44.764Z,6.30
2018-06-25T05:04:44.747Z,7.20
2018-06-25T05:05:44.714Z,6.80
2018-06-25T05:06:44.698Z,7.80
2018-06-25T05:07:44.666Z,6.80
2018-06-25T05:08:44.676Z,7.20
2018-06-25T05:09:44.618Z,6.90
2018-06-25T05:10:44.592Z,6.70
2018-06-25T05:11:44.572Z,7.50
2018-06-25T05:12:44.546Z,7.00
2018-06-25T05:13:44.517Z,6.60
2018-06-25T05:14:44.493Z,7.30
2018-06-25T05:15:44.468Z,7.10
2018-06-25T05:16:44.445Z,6.60
2018-06-25T05:17:44.420Z,6.70
2018-06-25T05:18:44.394Z,7.50
2018-06-25T05:19:44.372Z,6.20
2018-06-25T05:20:44.498Z,6.50
2018-06-25T05:21:44.323Z,6.30
2018-06-25T05:22:44.299Z,7.00
2018-06-25T05:23:44.321Z,6.70
2018-06-25T05:24:44.250Z,7.10
2018-06-25T05:25:44.223Z,6.80
2018-06-25T05:26:44.197Z,6.60
2018-06-25T05:27:44.176Z,6.60
2018-06-25T05:28:44.151Z,6.70
2018-06-25T05:29:44.127Z,7.00
2018-06-25T05:30:44.102Z,7.10
2018-06-25T05:31:44.078Z,7.30
2018-06-25T05:32:44.055Z,7.10
2018-06-25T05:33:44.029Z,7.50
2018-06-25T05:34:44.006Z,7.70
2018-06-25T05:35:43.984Z,8.30
2018-06-25T05:36:43.960Z,7.60
2018-06-25T05:37:43.931Z,8.60
2018-06-25T05:38:43.910Z,8.70
2018-06-25T05:39:43.900Z,8.90
2018-06-25T05:40:43.860Z,8.60
2018-06-25T05:41:43.838Z,8.70
2018-06-25T05:42:43.809Z,8.10
2018-06-25T05:43:43.784Z,8.60
2018-06-25T05:44:43.759Z,8.30
2018-06-25T05:45:43.735Z,9.40
2018-06-25T05:46:43.712Z,8.70
2018-06-25T05:47:43.688Z,9.00
2018-06-25T05:48:43.664Z,9.50
2018-06-25T05:49:43.639Z,9.80
2018-06-25T05:50:43.616Z,9.80
2018-06-25T05:51:43.593Z,9.10
2018-06-25T05:52:43.571Z,9.30
2018-06-25T05:53:43.545Z,8.70
2018-06-25T05:54:43.520Z,9.90
2018-06-25T05:55:43.495Z,10.40
2018-06-25T05:56:43.474Z,11.00
2018-06-25T05:57:43.448Z,10.50
2018-06-25T05:58:43.423Z,11.20
2018-06-25T05:59:43.402Z,10.90
2018-06-25T06:00:43.379Z,12.30
2018-06-25T06:01:43.353Z,12.90
2018-06-25T06:02:43.329Z,12.40
2018-06-25T06:03:43.307Z,13.70
2018-06-25T06:04:43.281Z,12.50
2018-06-25T06:05:43.260Z,12.60
2018-06-25T06:06:43.233Z,13.40
2018-06-25T06:07:43.208Z,12.70
2018-06-25T06:08:43.184Z,12.90
2018-06-25T06:09:43.160Z,12.40
2018-06-25T06:10:43.135Z,13.20
2018-06-25T06:11:43.118Z,12.00
2018-06-25T06:12:43.090Z,13.00
2018-06-25T06:13:43.065Z,12.60
2018-06-25T06:14:43.042Z,12.90
2018-06-25T06:15:43.015Z,13.20
2018-06-25T06:16:42.995Z,12.90
2018-06-25T06:17:42.972Z,12.00
2018-06-25T06:18:42.944Z,12.70
2018-06-25T06:19:42.921Z,12.20
2018-06-25T06:20:42.898Z,11.20
2018-06-25T06:21:42.873Z,10.90
2018-06-25T06:22:42.861Z,10.70
2018-06-25T06:23:42.832Z,11.30
2018-06-25T06:24:42.807Z,10.60
2018-06-25T06:25:42.783Z,10.40
2018-06-25T06:26:42.758Z,10.80
2018-06-25T06:27:42.735Z,10.90
2018-06-25T06:28:42.716Z,11.10
2018-06-25T06:29:42.687Z,11.00
2018-06-25T06:30:42.664Z,10.10
2018-06-25T06:31:42.650Z,11.50
2018-06-25T06:32:42.620Z,10.90
2018-06-25T06:33:42.597Z,10.80
2018-06-25T06:34:42.575Z,10.70
2018-06-25T06:35:42.551Z,11.50
2018-06-25T06:36:42.526Z,11.40
2018-06-25T06:37:42.504Z,11.30
2018-06-25T06:38:42.481Z,12.40
2018-06-25T06:39:42.458Z,11.30
2018-06-25T06:40:42.436Z,11.10
2018-06-25T06:41:42.412Z,11.50
2018-06-25T06:42:42.388Z,11.50
2018-06-25T06:43:42.371Z,12.00
2018-06-25T06:44:42.342Z,11.40
2018-06-25T06:45:42.320Z,11.10
2018-06-25T06:46:42.297Z,11.70
2018-06-25T06:47:42.279Z,11.10
2018-06-25T06:48:42.252Z,11.00
2018-06-25T06:49:42.228Z,11.30
2018-06-25T06:50:42.212Z,12.20
2018-06-25T06:51:42.185Z,11.40
2018-06-25T06:52:42.169Z,12.30
2018-06-25T06:53:42.146Z,12.10
2018-06-25T06:54:42.120Z,11.80
2018-06-25T06:55:42.100Z,11.10
2018-06-25T06:56:42.073Z,11.90
2018-06-25T06:57:42.065Z,11.00
2018-06-25T06:58:42.028Z,11.20
2018-06-25T06:59:42.011Z,11.40
2018-06-25T07:00:41.987Z,10.60
2018-06-25T07:01:41.966Z,11.70
2018-06-25T07:02:41.943Z,11.30
2018-06-25T07:03:41.923Z,11.80
2018-06-25T07:04:41.912Z,11.00
2018-06-25T07:05:41.875Z,10.20
2018-06-25T07:06:41.853Z,10.80
2018-06-25T07:07:41.832Z,10.40
2018-06-25T07:08:41.810Z,10.40
2018-06-25T07:09:41.790Z,10.60
2018-06-25T07:10:41.803Z,10.70
2018-06-25T07:11:41.749Z,10.00
2018-06-25T07:12:41.725Z,9.70
2018-06-25T07:13:41.701Z,11.00
2018-06-25T07:14:41.682Z,10.90
2018-06-25T07:15:41.655Z,9.60
2018-06-25T07:16:41.634Z,10.00
2018-06-25T07:17:41.610Z,10.50
2018-06-25T07:18:41.587Z,10.60
2018-06-25T07:19:41.571Z,10.00
2018-06-25T07:20:41.608Z,9.00
2018-06-25T07:21:41.524Z,10.00
2018-06-25T07:22:41.505Z,10.50
2018-06-25T07:23:41.480Z,11.10
2018-06-25T07:24:41.457Z,10.10
2018-06-25T07:25:41.435Z,10.90
2018-06-25T07:26:41.414Z,10.80
2018-06-25T07:27:41.390Z,10.00
2018-06-25T07:28:41.366Z,10.30
2018-06-25T07:29:41.343Z,10.00
2018-06-25T07:30:41.322Z,10.60
2018-06-25T07:31:41.300Z,10.20
2018-06-25T07:32:41.283Z,10.30
2018-06-25T07:33:41.257Z,10.30
2018-06-25T07:34:41.232Z,10.60
2018-06-25T07:35:41.208Z,10.50
2018-06-25T07:36:41.185Z,10.80
2018-06-25T07:37:41.163Z,10.30
2018-06-25T07:38:41.140Z,10.20
2018-06-25T07:39:41.118Z,9.70
2018-06-25T07:40:41.096Z,9.40
2018-06-25T07:41:41.075Z,9.90
2018-06-25T07:42:41.053Z,9.80
2018-06-25T07:43:41.035Z,10.10
2018-06-25T07:44:41.006Z,10.00
2018-06-25T07:45:40.983Z,10.60
2018-06-25T07:46:40.964Z,10.40
2018-06-25T07:47:40.936Z,10.70
2018-06-25T07:48:40.913Z,9.40
2018-06-25T07:49:40.890Z,10.40
2018-06-25T07:50:40.873Z,9.50
2018-06-25T07:51:40.847Z,10.00
2018-06-25T07:52:40.824Z,9.90
2018-06-25T07:53:40.875Z,10.40
2018-06-25T07:54:40.777Z,10.00
2018-06-25T07:55:40.760Z,9.90
2018-06-25T07:56:40.733Z,9.50
2018-06-25T07:57:40.711Z,10.20
2018-06-25T07:58:40.686Z,10.30
2018-06-25T07:59:40.662Z,9.50
2018-06-25T08:00:40.638Z,9.50
2018-06-25T08:01:40.615Z,9.10
2018-06-25T08:02:40.594Z,9.60
2018-06-25T08:03:40.663Z,9.50
2018-06-25T08:04:40.550Z,9.60
2018-06-25T08:05:40.526Z,8.30
2018-06-25T08:06:40.503Z,9.10
2018-06-25T08:07:40.481Z,9.30
2018-06-25T08:08:40.455Z,9.70
2018-06-25T08:09:40.435Z,8.90
2018-06-25T08:10:40.461Z,9.40
2018-06-25T08:11:40.388Z,9.20
2018-06-25T08:12:40.377Z,9.00
2018-06-25T08:13:40.343Z,9.60
2018-06-25T08:14:40.324Z,9.10
2018-06-25T08:15:40.301Z,9.20
2018-06-25T08:16:40.377Z,9.00
2018-06-25T08:17:40.263Z,9.70
2018-06-25T08:18:40.229Z,9.00
2018-06-25T08:19:40.204Z,8.90
2018-06-25T08:20:40.183Z,9.20
2018-06-25T08:21:40.158Z,9.80
2018-06-25T08:22:40.135Z,9.00
2018-06-25T08:23:40.115Z,8.50
2018-06-25T08:24:40.093Z,8.90
2018-06-25T08:25:40.069Z,9.00
2018-06-25T08:26:40.051Z,9.10
2018-06-25T08:27:40.027Z,9.50
2018-06-25T08:28:39.999Z,9.00
2018-06-25T08:29:40.043Z,9.40
2018-06-25T08:30:39.952Z,9.70
2018-06-25T08:31:39.930Z,9.10
2018-06-25T08:32:39.905Z,9.50
2018-06-25T08:33:39.885Z,9.40
2018-06-25T08:34:39.859Z,9.70
2018-06-25T08:35:39.837Z,9.30
2018-06-25T08:36:39.817Z,8.80
2018-06-25T08:37:39.791Z,8.80
2018-06-25T08:38:39.771Z,9.00
2018-06-25T08:39:39.744Z,9.20
2018-06-25T08:40:39.721Z,9.30
2018-06-25T08:41:39.697Z,8.50
2018-06-25T08:42:39.676Z,9.40
2018-06-25T08:43:39.653Z,9.10
2018-06-25T08:44:39.629Z,8.50
2018-06-25T08:45:39.605Z,8.20
2018-06-25T08:46:39.584Z,9.20
2018-06-25T08:47:39.563Z,9.00
2018-06-25T08:48:39.540Z,9.10
2018-06-25T08:49:39.515Z,9.60
2018-06-25T08:50:39.494Z,9.40
2018-06-25T08:51:39.476Z,9.90
2018-06-25T08:52:39.447Z,9.00
2018-06-25T08:53:39.424Z,9.00
2018-06-25T08:54:39.399Z,9.10
2018-06-25T08:55:39.381Z,9.80
2018-06-25T08:56:39.357Z,8.50
2018-06-25T08:57:39.333Z,8.70
2018-06-25T08:58:39.313Z,8.70
2018-06-25T08:59:39.287Z,8.90
2018-06-25T09:00:39.264Z,8.50
2018-06-25T09:01:39.239Z,8.50
2018-06-25T09:02:39.218Z,8.80
2018-06-25T09:03:39.197Z,9.40
2018-06-25T09:04:39.176Z,8.80
2018-06-25T09:05:39.160Z,8.60
2018-06-25T09:06:39.129Z,9.30
2018-06-25T09:07:39.105Z,8.80
2018-06-25T09:08:39.086Z,8.50
2018-06-25T09:09:39.082Z,8.50
2018-06-25T09:10:39.038Z,8.10
2018-06-25T09:11:39.022Z,8.30
2018-06-25T09:12:38.999Z,8.20
2018-06-25T09:13:38.972Z,8.10
2018-06-25T09:14:38.949Z,9.90
2018-06-25T09:15:38.949Z,8.70
2018-06-25T09:16:38.904Z,8.60
2018-06-25T09:17:38.881Z,9.30
2018-06-25T09:18:38.860Z,9.00
2018-06-25T09:19:38.841Z,8.50
2018-06-25T09:20:38.817Z,9.60
2018-06-25T09:21:38.802Z,9.10
2018-06-25T09:22:38.766Z,10.50
2018-06-25T09:23:38.746Z,10.10
2018-06-25T09:24:38.722Z,9.40
2018-06-25T09:25:38.701Z,9.70
2018-06-25T09:26:38.679Z,10.90
2018-06-25T09:27:38.688Z,10.60
2018-06-25T09:28:38.631Z,10.60
2018-06-25T09:29:38.624Z,10.50
2018-06-25T09:30:38.586Z,11.30
2018-06-25T09:31:38.564Z,11.70
2018-06-25T09:32:38.541Z,10.80
2018-06-25T09:33:38.517Z,10.70
2018-06-25T09:34:38.495Z,10.50
2018-06-25T09:35:38.475Z,10.40
2018-06-25T09:36:38.453Z,11.20
2018-06-25T09:37:38.429Z,10.90
2018-06-25T09:38:38.405Z,11.10
2018-06-25T09:39:38.383Z,11.00
2018-06-25T09:40:38.359Z,11.70
2018-06-25T09:41:38.551Z,11.50
2018-06-25T09:42:38.313Z,11.40
2018-06-25T09:43:38.295Z,12.10
2018-06-25T09:44:38.286Z,11.30
2018-06-25T09:45:38.246Z,10.60
2018-06-25T09:46:38.225Z,10.70
2018-06-25T09:47:38.201Z,10.90
2018-06-25T09:48:38.178Z,10.20
2018-06-25T09:49:38.167Z,10.50
2018-06-25T09:50:38.133Z,10.60
2018-06-25T09:51:38.108Z,9.40
2018-06-25T09:52:38.091Z,10.20
2018-06-25T09:53:38.062Z,10.00
2018-06-25T09:54:38.046Z,9.30
2018-06-25T09:55:38.020Z,9.00
2018-06-25T09:56:37.998Z,9.90
2018-06-25T09:57:37.973Z,9.20
2018-06-25T09:58:37.955Z,9.30
2018-06-25T09:59:37.931Z,10.20
2018-06-25T10:00:37.908Z,10.00
2018-06-25T10:01:37.882Z,8.80
2018-06-25T10:02:37.861Z,9.50
2018-06-25T10:03:37.841Z,9.80
2018-06-25T10:04:37.816Z,10.50
2018-06-25T10:05:37.792Z,8.10
2018-06-25T10:06:37.771Z,10.20
2018-06-25T10:07:37.753Z,9.70
2018-06-25T10:08:37.726Z,9.50
2018-06-25T10:09:37.703Z,10.00
2018-06-25T10:10:37.704Z,9.80
2018-06-25T10:11:37.658Z,8.70
2018-06-25T10:12:37.635Z,9.60
2018-06-25T10:13:37.612Z,9.80
2018-06-25T10:14:37.590Z,9.60
2018-06-25T10:15:37.574Z,9.40
2018-06-25T10:16:37.546Z,9.60
2018-06-25T10:17:37.526Z,8.90
2018-06-25T10:18:37.501Z,8.90
2018-06-25T10:19:37.478Z,9.50
2018-06-25T10:20:37.457Z,9.70
2018-06-25T10:21:37.434Z,9.50
2018-06-25T10:22:37.413Z,9.60
2018-06-25T10:23:37.387Z,9.10
2018-06-25T10:24:37.367Z,9.90
2018-06-25T10:25:37.342Z,9.50
2018-06-25T10:26:37.320Z,9.40
2018-06-25T10:27:37.303Z,9.50
2018-06-25T10:28:37.283Z,9.40
2018-06-25T10:29:37.256Z,8.90
2018-06-25T10:30:37.232Z,9.60
2018-06-25T10:31:37.209Z,10.10
2018-06-25T10:32:37.189Z,9.10
2018-06-25T10:33:37.164Z,9.10
2018-06-25T10:34:37.143Z,9.10
2018-06-25T10:35:37.120Z,8.30
2018-06-25T10:36:37.101Z,8.60
2018-06-25T10:37:37.083Z,8.00
2018-06-25T10:38:37.055Z,8.80
2018-06-25T10:39:37.039Z,8.20
2018-06-25T10:40:37.013Z,9.00
2018-06-25T10:41:36.991Z,8.70
2018-06-25T10:42:37.156Z,8.60
2018-06-25T10:43:36.946Z,9.20
2018-06-25T10:44:36.926Z,7.10
2018-06-25T10:45:36.903Z,7.80
2018-06-25T10:46:36.883Z,7.60
2018-06-25T10:47:36.863Z,7.90
2018-06-25T10:48:36.842Z,8.40
2018-06-25T10:49:36.821Z,8.00
2018-06-25T10:50:36.800Z,8.80
2018-06-25T10:51:36.776Z,8.00
2018-06-25T10:52:36.758Z,8.10
2018-06-25T10:53:36.734Z,8.10
2018-06-25T10:54:36.711Z,7.90
2018-06-25T10:55:36.690Z,7.70
2018-06-25T10:56:36.669Z,8.00
2018-06-25T10:57:36.646Z,8.10
2018-06-25T10:58:36.627Z,6.70
2018-06-25T10:59:36.650Z,7.50
2018-06-25T11:00:36.588Z,8.30
2018-06-25T11:01:36.571Z,8.00
2018-06-25T11:02:36.549Z,7.20
2018-06-25T11:03:36.523Z,7.50
2018-06-25T11:04:36.501Z,7.30
2018-06-25T11:05:36.480Z,8.00
2018-06-25T11:06:36.460Z,7.30
2018-06-25T11:07:36.529Z,7.50
2018-06-25T11:08:36.424Z,8.10
2018-06-25T11:09:36.398Z,8.00
2018-06-25T11:10:36.380Z,7.10
2018-06-25T11:11:36.363Z,7.10
2018-06-25T11:12:36.357Z,7.60
2018-06-25T11:13:36.393Z,8.00
2018-06-25T11:14:36.295Z,7.20
2018-06-25T11:15:36.288Z,7.50
2018-06-25T11:16:36.256Z,6.50
2018-06-25T11:17:36.233Z,7.40
2018-06-25T11:18:36.219Z,7.50
2018-06-25T11:19:36.194Z,7.20
2018-06-25T11:20:36.176Z,6.90
2018-06-25T11:21:36.150Z,8.00
2018-06-25T11:22:36.134Z,7.50
2018-06-25T11:23:36.113Z,7.20
2018-06-25T11:24:36.090Z,8.00
2018-06-25T11:25:36.068Z,7.40
2018-06-25T11:26:36.114Z,7.00
2018-06-25T11:27:36.057Z,7.10
2018-06-25T11:28:36.009Z,7.50
2018-06-25T11:29:35.989Z,7.50
2018-06-25T11:30:35.967Z,6.60
2018-06-25T11:31:35.949Z,6.70
2018-06-25T11:32:35.929Z,7.00
2018-06-25T11:33:35.912Z,7.20
2018-06-25T11:34:35.952Z,7.10
2018-06-25T11:35:35.867Z,7.40
2018-06-25T11:36:35.847Z,7.10
2018-06-25T11:37:35.831Z,6.90
2018-06-25T11:38:35.807Z,7.10
2018-06-25T11:39:35.788Z,6.20
2018-06-25T11:40:35.767Z,7.00
2018-06-25T11:41:35.746Z,7.00
2018-06-25T11:42:35.734Z,7.70
2018-06-25T11:43:35.716Z,7.40
2018-06-25T11:44:35.685Z,7.10
2018-06-25T11:45:35.665Z,7.20
2018-06-25T11:46:35.654Z,6.80
2018-06-25T11:47:35.634Z,7.40
2018-06-25T11:48:35.615Z,6.60
2018-06-25T11:49:35.589Z,7.60
2018-06-25T11:50:35.577Z,6.70
2018-06-25T11:51:35.582Z,6.90
2018-06-25T11:52:35.527Z,7.60
2018-06-25T11:53:35.512Z,7.00
2018-06-25T11:54:36.246Z,6.70
2018-06-25T11:55:35.512Z,7.50
2018-06-25T11:56:35.446Z,7.10
2018-06-25T11:57:35.426Z,7.10
2018-06-25T11:58:35.407Z,6.90
2018-06-25T11:59:35.392Z,6.80
2018-06-25T12:00:35.371Z,7.20
2018-06-25T12:01:35.389Z,7.90
2018-06-25T12:02:35.455Z,7.70
2018-06-25T12:03:35.315Z,8.50
2018-06-25T12:04:35.294Z,6.80
2018-06-25T12:05:35.273Z,7.70
2018-06-25T12:06:35.247Z,7.30
2018-06-25T12:07:35.228Z,7.20
2018-06-25T12:08:35.248Z,6.50
2018-06-25T12:09:35.189Z,6.90
2018-06-25T12:10:35.213Z,7.00
2018-06-25T12:11:35.147Z,6.40
2018-06-25T12:12:35.128Z,7.50
2018-06-25T12:13:35.116Z,7.50
2018-06-25T12:14:35.100Z,6.90
2018-06-25T12:15:35.082Z,6.20
2018-06-25T12:16:35.051Z,6.30
2018-06-25T12:17:35.049Z,7.30
2018-06-25T12:18:35.011Z,7.30
2018-06-25T12:19:34.990Z,6.60
2018-06-25T12:20:34.977Z,7.20
2018-06-25T12:21:34.951Z,6.60
2018-06-25T12:22:34.933Z,7.20
2018-06-25T12:23:34.920Z,6.60
2018-06-25T12:24:34.903Z,7.40
2018-06-25T12:25:34.886Z,6.90
2018-06-25T12:26:34.861Z,7.30
2018-06-25T12:27:34.866Z,6.60
2018-06-25T12:28:34.814Z,6.90
2018-06-25T12:29:34.794Z,6.70
2018-06-25T12:30:34.783Z,6.80
2018-06-25T12:31:34.756Z,6.90
2018-06-25T12:32:34.737Z,6.90
2018-06-25T12:33:34.717Z,7.10
2018-06-25T12:34:34.697Z,7.10
2018-06-25T12:35:34.687Z,7.20
2018-06-25T12:36:34.663Z,7.00
2018-06-25T12:37:34.688Z,7.60
2018-06-25T12:38:34.625Z,7.30
2018-06-25T12:39:34.605Z,7.80
2018-06-25T12:40:34.584Z,7.80
2018-06-25T12:41:34.615Z,7.80
2018-06-25T12:42:34.544Z,8.50
2018-06-25T12:43:34.532Z,8.00
2018-06-25T12:44:34.506Z,8.30
2018-06-25T12:45:34.485Z,7.70
2018-06-25T12:46:34.466Z,7.50
2018-06-25T12:47:34.449Z,7.50
2018-06-25T12:48:34.435Z,7.70
2018-06-25T12:49:34.409Z,8.50
2018-06-25T12:50:34.400Z,7.40
2018-06-25T12:51:34.368Z,7.70
2018-06-25T12:52:34.346Z,8.30
2018-06-25T12:53:34.340Z,8.40
2018-06-25T12:54:34.307Z,7.80
2018-06-25T12:55:34.288Z,8.50
2018-06-25T12:56:34.269Z,8.70
2018-06-25T12:57:34.249Z,8.00
2018-06-25T12:58:34.230Z,7.00
2018-06-25T12:59:34.214Z,7.40
2018-06-25T13:00:34.202Z,7.30
2018-06-25T13:01:34.286Z,7.10
2018-06-25T13:02:34.153Z,7.80
2018-06-25T13:03:34.131Z,7.50
2018-06-25T13:04:34.114Z,7.80
2018-06-25T13:05:34.096Z,7.60
2018-06-25T13:06:34.075Z,7.80
2018-06-25T13:07:34.062Z,7.60
2018-06-25T13:08:34.041Z,7.60
2018-06-25T13:09:34.025Z,6.30
2018-06-25T13:10:34.004Z,6.40
2018-06-25T13:11:33.985Z,7.40
2018-06-25T13:12:33.965Z,7.50
2018-06-25T13:13:34.148Z,6.30